Time;durP1;ratioP1;P1;durP2;ratioP2;P2;SDS_P1;SDS_P2;PMS_P1;PMS_P2;Temp;Humidity;BMP_temperature;BMP_pressure;BME280_temperature;BME280_humidity;BME280_pressure;Samples;Min_cycle;Max_cycle;Signal;HPM_P1;HPM_P2
2022/12/21 00:07:37;;;;;;;43.75;25.13;;;10.50;86.20;;;;;;21163288;28;20052;-58
2022/12/21 00:17:39;;;;;;;31.27;21.42;;;10.40;86.20;;;;;;21162797;28;20098;-58
2022/12/21 00:27:43;;;;;;;33.60;23.02;;;10.60;86.10;;;;;;21162738;28;20044;-57
2022/12/21 00:37:46;;;;;;;32.50;21.92;;;10.50;86.00;;;;;;21161872;28;20118;-57
2022/12/21 00:47:49;;;;;;;31.38;19.83;;;10.70;85.80;;;;;;21161268;28;20486;-57
2022/12/21 00:57:51;;;;;;;37.05;22.33;;;10.80;85.90;;;;;;21167362;28;20071;-58
2022/12/21 01:07:53;;;;;;;30.38;20.90;;;10.80;86.00;;;;;;21177392;28;20506;-56
2022/12/21 01:17:54;;;;;;;43.92;21.33;;;10.90;85.80;;;;;;21175943;28;20055;-59
2022/12/21 01:27:56;;;;;;;34.63;17.88;;;10.90;86.00;;;;;;21175470;28;20381;-57
2022/12/21 01:37:59;;;;;;;37.10;17.42;;;11.00;86.10;;;;;;21175297;28;20514;-57
2022/12/21 01:48:10;;;;;;;40.75;17.98;;;11.20;86.20;;;;;;21172784;28;20086;-58
2022/12/21 01:58:12;;;;;;;46.20;19.83;;;11.20;86.40;;;;;;21172655;28;20503;-57
2022/12/21 02:08:47;;;;;;;39.58;19.10;;;11.20;86.40;;;;;;21237306;27;20376;-58
2022/12/21 02:19:22;;;;;;;34.58;17.67;;;11.20;86.50;;;;;;21236800;27;20047;-59
2022/12/21 02:29:59;;;;;;;32.15;17.50;;;11.20;86.80;;;;;;21237019;27;20043;-57
2022/12/21 02:40:05;;;;;;;30.35;16.70;;;11.20;86.80;;;;;;21235410;27;20060;-59
2022/12/21 02:50:15;;;;;;;37.45;18.50;;;11.30;86.70;;;;;;21234776;27;20044;-60
2022/12/21 03:00:19;;;;;;;36.38;19.00;;;11.30;86.80;;;;;;21233066;27;20056;-59
2022/12/21 03:11:03;;;;;;;37.83;19.40;;;11.20;86.70;;;;;;21231659;27;20039;-58
2022/12/21 03:21:45;;;;;;;40.47;20.92;;;11.30;86.40;;;;;;20998161;28;20095;-57
2022/12/21 03:31:55;;;;;;;41.83;20.17;;;11.20;86.80;;;;;;20750410;28;20111;-58
2022/12/21 03:42:20;;;;;;;31.38;15.80;;;11.20;86.80;;;;;;20749468;28;20058;-60
2022/12/21 03:52:30;;;;;;;28.50;15.13;;;11.20;86.70;;;;;;20865469;28;20132;-61
2022/12/21 04:03:20;;;;;;;25.70;14.68;;;11.20;86.70;;;;;;21051598;28;20044;-59
2022/12/21 04:13:23;;;;;;;31.15;16.67;;;11.20;86.70;;;;;;20994118;28;20056;-57
2022/12/21 04:34:22;;;;;;;15.35;9.88;;;11.20;86.40;;;;;;20992466;28;20040;-57
2022/12/21 04:44:28;;;;;;;18.75;11.32;;;11.10;86.10;;;;;;21153480;28;20488;-57
2022/12/21 04:54:49;;;;;;;19.73;11.45;;;11.20;86.10;;;;;;21168984;28;20058;-57
2022/12/21 05:05:10;;;;;;;21.50;11.38;;;11.10;86.00;;;;;;21166739;28;20056;-57
2022/12/21 05:15:38;;;;;;;17.48;10.57;;;11.20;86.00;;;;;;21166788;28;20153;-57
2022/12/21 05:25:43;;;;;;;18.83;11.73;;;11.20;86.00;;;;;;21165024;28;20074;-58
2022/12/21 05:35:47;;;;;;;22.75;12.95;;;11.20;85.70;;;;;;21164533;28;20427;-57
2022/12/21 05:45:49;;;;;;;22.05;13.05;;;11.20;85.90;;;;;;21164501;28;20420;-58
2022/12/21 05:55:52;;;;;;;24.52;13.15;;;11.20;86.00;;;;;;21164910;27;20053;-57
2022/12/21 06:05:53;;;;;;;21.08;12.88;;;11.20;86.20;;;;;;21163281;28;20092;-57
2022/12/21 06:16:00;;;;;;;21.90;12.57;;;11.20;86.10;;;;;;21163217;28;20044;-57
2022/12/21 06:26:04;;;;;;;20.08;12.75;;;11.30;85.90;;;;;;21161941;28;20130;-57
2022/12/21 06:36:08;;;;;;;9.73;7.00;;;11.30;86.00;;;;;;21162902;28;20048;-58
2022/12/21 06:46:13;;;;;;;11.15;7.00;;;11.30;86.10;;;;;;21163069;28;20376;-57
2022/12/21 06:56:16;;;;;;;;;;;11.40;86.10;;;;;;21177825;28;20044;-58
2022/12/21 07:06:20;;;;;;;11.45;7.20;;;11.40;85.70;;;;;;21175941;28;19926;-57
2022/12/21 07:16:23;;;;;;;12.13;7.40;;;11.40;86.10;;;;;;21175583;28;20396;-58
2022/12/21 07:26:25;;;;;;;11.52;5.97;;;11.30;86.00;;;;;;21174007;28;20055;-58
2022/12/21 07:36:27;;;;;;;12.48;6.72;;;11.30;86.30;;;;;;21173752;28;20441;-57
2022/12/21 07:46:29;;;;;;;9.48;6.78;;;11.30;86.30;;;;;;21172437;28;20070;-57
2022/12/21 07:56:32;;;;;;;13.98;7.03;;;11.50;86.20;;;;;;21170978;28;20044;-58
2022/12/21 08:06:34;;;;;;;13.40;7.68;;;11.60;85.80;;;;;;21170460;28;20090;-57
2022/12/21 08:16:36;;;;;;;12.63;7.85;;;11.70;85.60;;;;;;21170179;28;20088;-57
2022/12/21 08:26:38;;;;;;;10.10;7.03;;;11.80;85.30;;;;;;21170845;28;20081;-57
2022/12/21 08:36:41;;;;;;;10.07;6.03;;;11.70;85.30;;;;;;21167850;28;20047;-58
2022/12/21 08:46:44;;;;;;;7.67;4.87;;;11.90;85.20;;;;;;21167021;28;20055;-58
2022/12/21 08:56:47;;;;;;;13.73;5.50;;;11.90;84.90;;;;;;21167229;27;20043;-58
2022/12/21 09:06:49;;;;;;;6.43;4.25;;;12.00;85.00;;;;;;21165863;28;20056;-56
2022/12/21 09:16:51;;;;;;;7.63;4.00;;;11.90;84.90;;;;;;21163341;28;20403;-57
2022/12/21 09:26:53;;;;;;;8.32;3.10;;;12.00;84.70;;;;;;21164782;28;20059;-59
2022/12/21 09:36:55;;;;;;;6.70;3.05;;;12.20;84.40;;;;;;21164022;28;20050;-59
2022/12/21 09:47:00;;;;;;;5.70;2.80;;;12.30;83.90;;;;;;21163354;28;20039;-60
2022/12/21 09:57:03;;;;;;;3.53;2.00;;;12.50;83.30;;;;;;21161823;28;20058;-57
2022/12/21 10:07:17;;;;;;;4.35;2.10;;;12.70;82.00;;;;;;21165690;28;20586;-58
2022/12/21 10:17:45;;;;;;;5.18;2.28;;;13.80;77.50;;;;;;21161225;28;20070;-57
2022/12/21 10:28:05;;;;;;;4.28;1.65;;;14.20;76.10;;;;;;21173725;28;20074;-58
2022/12/21 10:38:15;;;;;;;6.85;2.20;;;14.20;76.20;;;;;;21176519;28;20047;-58
2022/12/21 10:48:19;;;;;;;4.00;1.60;;;14.70;75.40;;;;;;21176502;28;20384;-57
2022/12/21 10:58:34;;;;;;;4.40;1.95;;;14.80;75.90;;;;;;21177279;28;20043;-61
2022/12/21 11:08:52;;;;;;;3.30;1.40;;;15.10;74.60;;;;;;21176688;28;20556;-56
2022/12/21 11:18:58;;;;;;;2.30;1.70;;;14.70;74.00;;;;;;21175526;27;20044;-58
2022/12/21 11:29:03;;;;;;;3.33;1.92;;;14.10;76.40;;;;;;21175511;28;20120;-59
2022/12/21 11:39:15;;;;;;;4.10;1.50;;;14.00;77.20;;;;;;21173794;27;20051;-60
2022/12/21 11:49:23;;;;;;;5.20;2.22;;;14.00;77.00;;;;;;21172607;27;20134;-59
2022/12/21 11:59:40;;;;;;;4.45;1.65;;;14.00;77.30;;;;;;21170554;28;20055;-56
2022/12/21 12:10:06;;;;;;;3.00;1.85;;;14.00;76.20;;;;;;21169692;28;20051;-58
2022/12/21 12:20:27;;;;;;;6.38;2.10;;;13.90;76.50;;;;;;21169121;28;20531;-57
2022/12/21 12:30:53;;;;;;;5.43;1.70;;;14.00;76.50;;;;;;21166532;28;20479;-59
2022/12/21 12:41:13;;;;;;;3.05;1.25;;;14.00;76.30;;;;;;21168464;28;20097;-58
2022/12/21 12:51:23;;;;;;;4.07;1.45;;;14.00;75.40;;;;;;21166430;28;20126;-58
2022/12/21 13:01:43;;;;;;;3.65;1.40;;;14.10;74.70;;;;;;21166854;28;20510;-59
2022/12/21 13:12:24;;;;;;;2.47;1.40;;;14.40;75.00;;;;;;21165402;28;20044;-57
2022/12/21 13:22:31;;;;;;;2.67;1.35;;;14.50;74.20;;;;;;20988677;28;20109;-58
2022/12/21 13:32:38;;;;;;;5.32;1.40;;;14.50;74.60;;;;;;20988361;28;20052;-57
2022/12/21 13:43:01;;;;;;;5.13;1.52;;;14.40;74.10;;;;;;20987296;28;20416;-57
2022/12/21 13:53:18;;;;;;;5.88;1.95;;;14.40;73.60;;;;;;21027454;28;20494;-58
2022/12/21 14:03:26;;;;;;;3.65;1.90;;;14.40;74.90;;;;;;21160623;28;20527;-57
2022/12/21 14:13:51;;;;;;;5.57;2.88;;;14.60;74.90;;;;;;21163282;28;20048;-57
2022/12/21 14:23:57;;;;;;;6.78;3.10;;;14.60;74.90;;;;;;21162362;28;20043;-58
2022/12/21 14:34:06;;;;;;;9.18;2.88;;;14.70;75.30;;;;;;21162078;28;20483;-57
2022/12/21 14:44:21;;;;;;;7.53;2.10;;;14.70;75.00;;;;;;21162011;28;20085;-57
2022/12/21 14:54:33;;;;;;;6.53;2.40;;;14.80;74.10;;;;;;21161815;28;20039;-58
2022/12/21 15:04:35;;;;;;;7.15;2.58;;;14.80;73.70;;;;;;21160482;28;20061;-59
2022/12/21 15:14:48;;;;;;;5.47;1.95;;;14.70;74.20;;;;;;21173344;28;20126;-58
2022/12/21 15:25:01;;;;;;;7.10;2.25;;;14.70;74.60;;;;;;21174910;28;20109;-58
2022/12/21 15:35:17;;;;;;;5.40;2.25;;;14.70;75.00;;;;;;21173690;28;20043;-66
2022/12/21 15:45:52;;;;;;;9.50;3.30;;;14.70;74.20;;;;;;21173322;28;20085;-59
2022/12/21 15:55:55;;;;;;;;;;;14.70;74.20;;;;;;20996699;28;20049;-57
2022/12/21 16:06:04;;;;;;;11.05;2.25;;;14.50;74.40;;;;;;20994440;28;19935;-58
2022/12/21 16:16:16;;;;;;;7.57;2.45;;;14.60;75.00;;;;;;20993725;28;20519;-60
2022/12/21 16:26:25;;;;;;;8.95;3.20;;;14.40;75.50;;;;;;21032291;28;20462;-64
2022/12/21 16:36:28;;;;;;;7.90;2.65;;;14.40;76.10;;;;;;21169472;28;20400;-58
2022/12/21 16:46:39;;;;;;;6.65;2.58;;;14.30;76.50;;;;;;21168942;28;20161;-62
2022/12/21 16:56:56;;;;;;;8.38;2.45;;;14.20;77.00;;;;;;21166754;28;20048;-57
2022/12/21 17:06:57;;;;;;;9.52;2.53;;;14.20;77.40;;;;;;21165434;28;20059;-58
2022/12/21 17:17:14;;;;;;;17.05;3.80;;;14.20;77.40;;;;;;21167025;28;20071;-59
2022/12/21 17:27:22;;;;;;;12.60;3.15;;;14.20;77.40;;;;;;21165174;28;20086;-58
2022/12/21 17:37:25;;;;;;;9.57;2.95;;;14.00;78.00;;;;;;21146629;28;20044;-59
2022/12/21 17:47:29;;;;;;;8.15;2.60;;;14.00;78.00;;;;;;21162277;28;20138;-58
2022/12/21 17:57:31;;;;;;;14.38;3.83;;;13.80;77.90;;;;;;21163832;28;20047;-59
2022/12/21 18:07:34;;;;;;;8.60;2.85;;;13.70;78.40;;;;;;21162625;28;20059;-57
2022/12/21 18:17:38;;;;;;;13.50;3.85;;;13.70;79.00;;;;;;21162716;28;20048;-58
2022/12/21 18:27:40;;;;;;;12.82;3.45;;;13.50;79.60;;;;;;21161943;28;20052;-58
2022/12/21 18:37:43;;;;;;;9.75;3.45;;;13.40;79.90;;;;;;21162388;28;20079;-60
2022/12/21 18:47:45;;;;;;;13.75;3.88;;;13.40;80.40;;;;;;21172507;28;20071;-59
2022/12/21 18:57:47;;;;;;;24.40;6.68;;;13.40;80.60;;;;;;21176818;28;20047;-59
2022/12/21 19:07:51;;;;;;;15.15;3.90;;;13.30;80.90;;;;;;21175766;28;20051;-59
2022/12/21 19:17:53;;;;;;;16.88;4.28;;;13.30;81.10;;;;;;21175969;28;20135;-60
2022/12/21 19:27:56;;;;;;;13.27;4.00;;;13.30;81.20;;;;;;21174313;28;20074;-58
2022/12/21 19:37:57;;;;;;;12.27;3.75;;;13.20;81.40;;;;;;21174254;28;20044;-57
2022/12/21 19:47:59;;;;;;;14.27;4.15;;;13.20;81.40;;;;;;21172882;28;20048;-57
2022/12/21 19:58:01;;;;;;;17.90;4.20;;;13.30;81.50;;;;;;21173626;28;20047;-58
2022/12/21 20:08:15;;;;;;;13.95;4.53;;;13.20;81.60;;;;;;21171395;28;20059;-57
2022/12/21 20:18:20;;;;;;;14.27;5.82;;;13.20;81.80;;;;;;21171065;28;20050;-57
2022/12/21 20:28:22;;;;;;;;;;;13.10;82.10;;;;;;21172346;28;20060;-57
2022/12/21 20:38:27;;;;;;;14.65;5.28;;;13.00;82.20;;;;;;21169202;28;20016;-58
2022/12/21 20:48:29;;;;;;;19.77;5.60;;;12.90;82.90;;;;;;21168889;28;20047;-58
2022/12/21 20:58:31;;;;;;;12.57;4.10;;;12.80;83.40;;;;;;21168629;28;20786;-59
2022/12/21 21:08:33;;;;;;;16.30;4.75;;;12.80;83.60;;;;;;21166476;28;20515;-57
2022/12/21 21:18:35;;;;;;;20.95;5.43;;;12.90;83.50;;;;;;21165496;28;20044;-59
2022/12/21 21:28:37;;;;;;;15.70;5.85;;;13.00;83.30;;;;;;21165569;28;20047;-61
2022/12/21 21:49:28;;;;;;;14.07;4.17;;;13.20;82.90;;;;;;21163757;28;20055;-59
2022/12/21 21:59:36;;;;;;;17.02;3.95;;;13.20;82.90;;;;;;21162040;28;20066;-57
2022/12/21 22:09:38;;;;;;;17.92;4.80;;;13.20;83.00;;;;;;21163475;28;20403;-58
2022/12/21 22:51:02;;;;;;;10.80;4.00;;;13.20;83.10;;;;;;21178584;28;20055;-59
2022/12/21 23:01:16;;;;;;;11.55;4.35;;;13.20;83.10;;;;;;21175376;28;20063;-63
2022/12/21 23:11:36;;;;;;;8.45;2.95;;;13.20;83.20;;;;;;21177514;28;20051;-57
